createdAt,value
2023-04-23T00:02:17.574Z,48.83
2023-04-23T00:04:51.090Z,48.93
2023-04-23T00:07:19.321Z,49.03
2023-04-23T00:09:46.899Z,49.05
2023-04-23T00:12:14.781Z,49.03
2023-04-23T00:14:42.786Z,49.13
2023-04-23T00:17:12.236Z,49.24
2023-04-23T00:19:39.816Z,49.28
2023-04-23T00:22:07.398Z,49.21
2023-04-23T00:24:36.240Z,49.24
2023-04-23T00:27:03.968Z,49.27
2023-04-23T00:29:31.559Z,49.29
2023-04-23T00:31:59.197Z,49.31
2023-04-23T00:34:28.216Z,49.44
2023-04-23T00:36:55.784Z,49.41
2023-04-23T00:39:23.552Z,49.40
2023-04-23T00:41:51.303Z,49.46
2023-04-23T00:44:18.890Z,49.52
2023-04-23T00:46:46.457Z,49.41
2023-04-23T00:49:14.301Z,49.40
2023-04-23T00:51:43.270Z,49.38
2023-04-23T00:54:10.799Z,49.64
2023-04-23T00:56:38.429Z,49.54
2023-04-23T00:59:06.119Z,49.74
2023-04-23T01:01:34.056Z,49.65
2023-04-23T01:04:03.731Z,49.45
2023-04-23T01:06:31.721Z,49.60
2023-04-23T01:09:01.225Z,49.70
2023-04-23T01:11:28.764Z,49.72
2023-04-23T01:13:56.308Z,49.72
2023-04-23T01:16:23.902Z,49.67
2023-04-23T01:18:53.695Z,49.70
2023-04-23T01:21:21.258Z,49.71
2023-04-23T01:23:50.374Z,49.82
2023-04-23T01:26:18.993Z,49.73
2023-04-23T01:28:46.725Z,49.78
2023-04-23T01:31:15.021Z,49.77
2023-04-23T01:33:43.107Z,49.78
2023-04-23T01:36:10.765Z,49.79
2023-04-23T01:38:39.116Z,49.78
2023-04-23T01:41:08.116Z,49.88
2023-04-23T01:43:35.787Z,49.83
2023-04-23T01:46:03.426Z,49.78
2023-04-23T01:48:31.023Z,49.83
2023-04-23T01:50:59.305Z,49.89
2023-04-23T01:53:27.017Z,49.83
2023-04-23T01:55:54.555Z,49.84
2023-04-23T01:58:23.741Z,49.92
2023-04-23T02:00:52.346Z,50.04
2023-04-23T02:03:20.307Z,50.11
2023-04-23T02:05:48.188Z,50.01
2023-04-23T02:08:15.934Z,50.10
2023-04-23T02:10:43.626Z,50.13
2023-04-23T02:13:11.206Z,50.20
2023-04-23T02:15:40.592Z,50.24
2023-04-23T02:18:08.208Z,50.38
2023-04-23T02:20:38.757Z,50.37
2023-04-23T02:23:06.334Z,50.39
2023-04-23T02:25:33.973Z,50.58
2023-04-23T02:28:05.388Z,50.51
2023-04-23T02:30:32.958Z,50.64
2023-04-23T02:33:02.131Z,50.57
2023-04-23T02:35:29.790Z,50.57
2023-04-23T02:37:57.358Z,50.60
2023-04-23T02:40:25.131Z,50.63
2023-04-23T02:42:52.720Z,50.55
2023-04-23T02:45:20.298Z,50.53
2023-04-23T02:47:53.301Z,50.50
2023-04-23T02:50:22.679Z,50.55
2023-04-23T02:52:50.618Z,50.72
2023-04-23T02:55:18.307Z,50.63
2023-04-23T02:57:46.536Z,50.63
2023-04-23T03:00:15.121Z,50.72
2023-04-23T03:02:44.096Z,50.75
2023-04-23T03:05:12.708Z,50.54
2023-04-23T03:07:41.898Z,50.69
2023-04-23T03:10:09.850Z,50.69
2023-04-23T03:12:37.570Z,50.81
2023-04-23T03:15:05.769Z,50.77
2023-04-23T03:17:35.750Z,50.77
2023-04-23T03:20:03.742Z,50.66
2023-04-23T03:22:31.703Z,50.63
2023-04-23T03:25:00.621Z,50.74
2023-04-23T03:27:28.262Z,50.77
2023-04-23T03:29:56.563Z,50.76
2023-04-23T03:32:24.288Z,50.76
2023-04-23T03:34:52.103Z,50.63
2023-04-23T03:37:20.319Z,50.64
2023-04-23T03:39:47.965Z,50.74
2023-04-23T03:42:17.612Z,50.69
2023-04-23T03:44:45.363Z,50.70
2023-04-23T03:47:12.957Z,50.75
2023-04-23T03:49:40.899Z,50.66
2023-04-23T03:52:09.322Z,50.69
2023-04-23T03:54:40.050Z,50.78
2023-04-23T03:57:20.044Z,50.79
2023-04-23T04:00:16.836Z,50.58
2023-04-23T04:02:44.641Z,50.68
2023-04-23T04:05:13.834Z,50.64
2023-04-23T04:07:42.358Z,50.64
2023-04-23T04:10:10.452Z,50.81
2023-04-23T04:12:41.006Z,50.73
2023-04-23T04:15:11.114Z,50.72
2023-04-23T04:17:38.886Z,50.66
2023-04-23T04:20:08.379Z,50.65
2023-04-23T04:22:35.924Z,50.60
2023-04-23T04:25:05.162Z,50.79
2023-04-23T04:27:33.785Z,50.87
2023-04-23T04:30:02.790Z,50.98
2023-04-23T04:32:30.712Z,50.77
2023-04-23T04:34:58.342Z,50.94
2023-04-23T04:37:26.412Z,50.99
2023-04-23T04:39:54.497Z,50.97
2023-04-23T04:42:22.094Z,51.09
2023-04-23T04:44:49.685Z,51.00
2023-04-23T04:47:18.789Z,50.96
2023-04-23T04:49:46.740Z,51.04
2023-04-23T04:52:14.297Z,51.00
2023-04-23T04:54:42.187Z,51.02
2023-04-23T04:57:10.992Z,51.04
2023-04-23T04:59:38.592Z,51.01
2023-04-23T05:02:06.208Z,51.15
2023-04-23T05:04:35.263Z,51.06
2023-04-23T05:07:02.803Z,51.04
2023-04-23T05:09:30.334Z,51.03
2023-04-23T05:11:58.153Z,50.99
2023-04-23T05:14:26.596Z,51.03
2023-04-23T05:16:54.240Z,51.19
2023-04-23T05:19:21.870Z,51.07
2023-04-23T05:21:50.839Z,51.03
2023-04-23T05:24:18.436Z,51.03
2023-04-23T05:26:46.007Z,51.08
2023-04-23T05:29:17.817Z,51.16
2023-04-23T05:31:45.573Z,51.01
2023-04-23T05:34:13.254Z,51.10
2023-04-23T05:36:41.142Z,51.04
2023-04-23T05:39:10.074Z,51.04
2023-04-23T05:41:37.606Z,51.08
2023-04-23T05:44:05.329Z,51.12
2023-04-23T05:46:32.973Z,51.05
2023-04-23T05:49:00.678Z,51.08
2023-04-23T05:51:28.357Z,50.99
2023-04-23T05:53:55.898Z,51.23
2023-04-23T05:56:25.611Z,51.17
2023-04-23T05:58:53.183Z,51.17
2023-04-23T06:01:20.881Z,51.17
2023-04-23T06:03:48.813Z,51.05
2023-04-23T06:06:16.865Z,51.11
2023-04-23T06:08:44.714Z,51.24
2023-04-23T06:11:12.271Z,51.15
2023-04-23T06:13:43.912Z,51.03
2023-04-23T06:16:11.758Z,51.16
2023-04-23T06:18:39.631Z,51.19
2023-04-23T06:21:07.164Z,50.93
2023-04-23T06:23:34.925Z,51.00
2023-04-23T06:26:04.310Z,51.13
2023-04-23T06:28:31.940Z,51.13
2023-04-23T06:31:23.938Z,51.19
2023-04-23T06:33:51.575Z,51.02
2023-04-23T06:36:19.155Z,51.11
2023-04-23T06:38:46.750Z,51.15
2023-04-23T06:41:14.332Z,51.30
2023-04-23T06:43:42.075Z,51.17
2023-04-23T06:46:15.287Z,51.20
2023-04-23T06:48:44.263Z,51.21
2023-04-23T06:51:11.867Z,51.12
2023-04-23T06:53:40.034Z,51.12
2023-04-23T06:56:07.816Z,51.31
2023-04-23T06:58:35.450Z,51.22
2023-04-23T07:01:12.678Z,51.44
2023-04-23T07:03:42.454Z,51.25
2023-04-23T07:06:12.574Z,51.25
2023-04-23T07:08:40.435Z,51.23
2023-04-23T07:11:08.007Z,51.34
2023-04-23T07:13:35.687Z,51.31
2023-04-23T07:16:05.661Z,51.23
2023-04-23T07:18:33.333Z,51.22
2023-04-23T07:21:01.024Z,51.20
2023-04-23T07:23:30.067Z,51.41
2023-04-23T07:25:57.617Z,51.35
2023-04-23T07:28:25.215Z,51.47
2023-04-23T07:30:52.817Z,51.52
2023-04-23T07:33:20.414Z,51.56
2023-04-23T07:35:48.563Z,51.51
2023-04-23T07:38:16.121Z,51.50
2023-04-23T07:40:45.308Z,51.47
2023-04-23T07:43:13.992Z,51.59
2023-04-23T07:45:41.594Z,51.61
2023-04-23T07:48:09.232Z,51.37
2023-04-23T07:50:36.851Z,51.48
2023-04-23T07:53:04.457Z,51.55
2023-04-23T07:55:32.025Z,51.39
2023-04-23T07:58:01.052Z,51.55
2023-04-23T08:00:28.608Z,51.54
2023-04-23T08:02:56.268Z,51.59
2023-04-23T08:05:24.018Z,51.51
2023-04-23T08:07:51.722Z,51.59
2023-04-23T08:10:19.342Z,51.66
2023-04-23T08:12:46.922Z,51.60
2023-04-23T08:15:15.897Z,51.88
2023-04-23T08:17:45.271Z,51.96
2023-04-23T08:20:15.766Z,51.82
2023-04-23T08:22:43.409Z,51.62
2023-04-23T08:25:11.105Z,51.79
2023-04-23T08:27:38.697Z,51.68
2023-04-23T08:30:07.466Z,51.72
2023-04-23T08:32:36.526Z,51.57
2023-04-23T08:35:10.661Z,51.72
2023-04-23T08:37:41.284Z,51.69
2023-04-23T08:40:10.027Z,51.53
2023-04-23T08:42:38.893Z,51.72
2023-04-23T08:45:07.148Z,51.86
2023-04-23T08:47:36.775Z,51.81
2023-04-23T08:50:05.333Z,51.80
2023-04-23T08:52:34.223Z,51.70
2023-04-23T08:55:02.165Z,51.78
2023-04-23T08:57:29.868Z,51.65
2023-04-23T08:59:57.468Z,51.65
2023-04-23T09:02:25.254Z,51.70
2023-04-23T09:04:56.197Z,51.59
2023-04-23T09:07:24.025Z,51.65
2023-04-23T09:09:51.671Z,51.69
2023-04-23T09:12:19.280Z,51.72
2023-04-23T09:14:46.818Z,51.53
2023-04-23T09:17:14.390Z,51.61
2023-04-23T09:19:42.163Z,51.69
2023-04-23T09:22:11.301Z,51.59
2023-04-23T09:24:38.881Z,51.72
2023-04-23T09:27:07.005Z,51.52
2023-04-23T09:29:34.872Z,51.56
2023-04-23T09:32:06.727Z,51.67
2023-04-23T09:34:35.277Z,51.58
2023-04-23T09:37:03.761Z,51.55
2023-04-23T09:39:33.740Z,51.44
2023-04-23T09:42:03.818Z,51.55
2023-04-23T09:44:32.689Z,51.56
2023-04-23T09:47:07.020Z,51.65
2023-04-23T09:49:34.885Z,51.61
2023-04-23T09:52:04.520Z,51.64
2023-04-23T09:54:33.423Z,51.49
2023-04-23T09:57:02.176Z,51.56
2023-04-23T09:59:46.810Z,51.53
2023-04-23T10:02:17.578Z,51.67
2023-04-23T10:04:45.349Z,51.64
2023-04-23T10:09:46.464Z,51.60
2023-04-23T10:12:31.371Z,51.63
2023-04-23T10:15:01.705Z,51.61
2023-04-23T10:17:29.413Z,51.54
2023-04-23T10:19:56.989Z,51.38
2023-04-23T10:22:24.631Z,51.48
2023-04-23T10:24:56.024Z,51.42
2023-04-23T10:27:33.457Z,51.54
2023-04-23T10:30:06.146Z,51.55
2023-04-23T10:32:34.419Z,51.61
2023-04-23T10:35:02.115Z,51.62
2023-04-23T10:37:29.800Z,51.57
2023-04-23T10:40:00.257Z,51.49
2023-04-23T10:42:28.361Z,51.51
2023-04-23T10:45:02.716Z,51.41
2023-04-23T10:47:32.505Z,51.49
2023-04-23T10:50:00.071Z,51.45
2023-04-23T10:52:27.672Z,51.35
2023-04-23T10:54:59.855Z,51.35
2023-04-23T10:57:27.644Z,51.30
2023-04-23T10:59:56.280Z,51.40
2023-04-23T11:02:26.614Z,51.38
2023-04-23T11:04:56.067Z,51.45
2023-04-23T11:07:28.427Z,51.40
2023-04-23T11:09:57.682Z,51.54
2023-04-23T11:12:35.678Z,51.39
2023-04-23T11:15:11.234Z,51.37
2023-04-23T11:17:57.303Z,51.50
2023-04-23T11:20:24.957Z,51.37
2023-04-23T11:22:53.032Z,51.28
2023-04-23T11:25:21.016Z,51.35
2023-04-23T11:27:50.440Z,51.22
2023-04-23T11:30:18.689Z,51.06
2023-04-23T11:32:48.976Z,51.33
2023-04-23T11:35:16.937Z,51.04
2023-04-23T11:37:45.134Z,51.10
2023-04-23T11:40:13.835Z,51.11
2023-04-23T11:42:42.249Z,51.36
2023-04-23T11:45:17.204Z,51.21
2023-04-23T11:47:44.983Z,51.34
2023-04-23T11:50:12.856Z,51.29
2023-04-23T11:52:40.406Z,51.16
2023-04-23T11:55:08.457Z,51.05
2023-04-23T11:57:37.189Z,51.21
2023-04-23T12:00:12.183Z,51.29
2023-04-23T12:02:41.510Z,51.20
2023-04-23T12:05:09.718Z,51.19
2023-04-23T12:07:37.265Z,50.99
2023-04-23T12:10:05.030Z,51.24
2023-04-23T12:12:33.904Z,50.99
2023-04-23T12:15:04.517Z,51.11
2023-04-23T12:17:32.145Z,51.00
2023-04-23T12:20:01.155Z,51.09
2023-04-23T12:22:29.134Z,51.09
2023-04-23T12:24:56.819Z,51.07
2023-04-23T12:27:24.418Z,50.95
2023-04-23T12:30:00.220Z,51.28
2023-04-23T12:32:27.969Z,51.13
2023-04-23T12:34:55.749Z,51.09
2023-04-23T12:37:27.060Z,51.22
2023-04-23T12:39:56.878Z,51.21
2023-04-23T12:42:24.680Z,51.12
2023-04-23T12:44:52.465Z,51.13
2023-04-23T12:47:20.471Z,51.05
2023-04-23T12:49:49.486Z,51.11
2023-04-23T12:52:17.207Z,51.10
2023-04-23T12:54:46.169Z,51.10
2023-04-23T12:57:14.104Z,50.72
2023-04-23T12:59:42.173Z,50.52
2023-04-23T13:02:09.958Z,50.81
2023-04-23T13:04:37.710Z,50.87
2023-04-23T13:07:05.400Z,51.00
2023-04-23T13:09:33.000Z,50.75
2023-04-23T13:12:02.538Z,50.61
2023-04-23T13:14:31.760Z,50.73
2023-04-23T13:16:59.271Z,50.82
2023-04-23T13:19:26.966Z,50.72
2023-04-23T13:21:54.622Z,50.82
2023-04-23T13:24:22.244Z,50.66
2023-04-23T13:26:49.897Z,50.63
2023-04-23T13:29:18.868Z,50.71
2023-04-23T13:31:46.748Z,50.63
2023-04-23T13:34:14.516Z,50.71
2023-04-23T13:36:42.277Z,50.70
2023-04-23T13:39:10.989Z,50.62
2023-04-23T13:41:38.609Z,50.54
2023-04-23T13:44:06.190Z,50.66
2023-04-23T13:46:35.555Z,50.61
2023-04-23T13:49:03.127Z,50.63
2023-04-23T13:51:34.665Z,50.53
2023-04-23T13:54:03.630Z,50.51
2023-04-23T13:56:31.643Z,50.56
2023-04-23T13:59:19.525Z,50.65
2023-04-23T14:01:50.297Z,50.65
2023-04-23T14:04:18.327Z,50.54
2023-04-23T14:06:46.086Z,50.54
2023-04-23T14:09:13.741Z,50.58
2023-04-23T14:11:41.514Z,50.58
2023-04-23T14:14:09.295Z,50.50
2023-04-23T14:16:36.910Z,50.60
2023-04-23T14:19:05.854Z,50.63
2023-04-23T14:21:33.728Z,50.55
2023-04-23T14:24:02.458Z,50.68
2023-04-23T14:29:09.854Z,50.67
2023-04-23T14:31:38.037Z,50.75
2023-04-23T14:34:07.215Z,50.77
2023-04-23T14:36:34.809Z,50.54
2023-04-23T14:39:05.109Z,50.59
2023-04-23T14:41:32.886Z,50.71
2023-04-23T14:44:00.804Z,50.70
2023-04-23T14:46:28.640Z,50.74
2023-04-23T14:48:56.257Z,50.79
2023-04-23T14:51:25.237Z,50.64
2023-04-23T14:53:56.663Z,50.54
2023-04-23T14:56:24.482Z,50.65
2023-04-23T14:58:52.323Z,50.68
2023-04-23T15:01:19.959Z,49.86
2023-04-23T15:03:47.850Z,48.21
2023-04-23T15:06:15.580Z,48.75
2023-04-23T15:08:44.599Z,49.25
2023-04-23T15:11:14.096Z,49.69
2023-04-23T15:13:45.226Z,49.47
2023-04-23T15:19:05.231Z,47.03
2023-04-23T15:21:33.972Z,48.13
2023-04-23T15:24:02.940Z,48.82
2023-04-23T15:26:32.567Z,49.01
2023-04-23T15:29:00.176Z,49.44
2023-04-23T15:31:27.845Z,49.56
2023-04-23T15:33:58.210Z,49.57
2023-04-23T15:36:28.682Z,49.59
2023-04-23T15:38:56.234Z,49.60
2023-04-23T15:41:25.299Z,49.73
2023-04-23T15:43:53.689Z,49.65
2023-04-23T15:46:21.332Z,49.80
2023-04-23T15:48:49.073Z,49.69
2023-04-23T15:51:16.688Z,49.78
2023-04-23T15:53:44.330Z,49.80
2023-04-23T15:56:11.970Z,49.76
2023-04-23T15:58:41.007Z,49.83
2023-04-23T16:01:09.804Z,49.78
2023-04-23T16:03:37.912Z,49.90
2023-04-23T16:06:05.910Z,50.01
2023-04-23T16:08:33.680Z,49.94
2023-04-23T16:11:01.369Z,49.98
2023-04-23T16:13:29.196Z,50.07
2023-04-23T16:15:58.439Z,50.02
2023-04-23T16:18:26.070Z,50.05
2023-04-23T16:20:53.731Z,50.07
2023-04-23T16:23:21.496Z,50.16
2023-04-23T16:25:49.274Z,50.06
2023-04-23T16:28:16.818Z,50.19
2023-04-23T16:30:44.541Z,50.10
2023-04-23T16:33:13.601Z,50.12
2023-04-23T16:35:41.150Z,50.36
2023-04-23T16:38:10.912Z,50.41
2023-04-23T16:40:39.751Z,50.28
2023-04-23T16:43:07.377Z,50.21
2023-04-23T16:45:35.475Z,50.18
2023-04-23T16:48:03.147Z,50.16
2023-04-23T16:50:32.153Z,49.99
2023-04-23T16:53:00.098Z,49.74
2023-04-23T16:55:27.747Z,49.85
2023-04-23T16:57:55.417Z,49.60
2023-04-23T17:00:23.071Z,49.41
2023-04-23T17:02:50.777Z,49.96
2023-04-23T17:05:21.084Z,49.16
2023-04-23T17:07:50.093Z,49.69
2023-04-23T17:10:18.830Z,49.35
2023-04-23T17:12:46.671Z,49.21
2023-04-23T17:15:14.336Z,48.89
2023-04-23T17:17:42.126Z,48.97
2023-04-23T17:20:10.227Z,48.77
2023-04-23T17:22:37.826Z,48.84
2023-04-23T17:25:07.471Z,48.71
2023-04-23T17:27:35.045Z,48.97
2023-04-23T17:30:05.803Z,48.74
2023-04-23T17:32:33.521Z,48.69
2023-04-23T17:35:09.529Z,49.53
2023-04-23T17:37:38.054Z,48.94
2023-04-23T17:40:08.158Z,48.75
2023-04-23T17:42:35.856Z,48.43
2023-04-23T17:45:04.488Z,48.44
2023-04-23T17:47:32.154Z,48.86
2023-04-23T17:49:59.850Z,48.62
2023-04-23T17:52:27.398Z,48.30
2023-04-23T17:54:56.713Z,47.95
2023-04-23T17:57:25.784Z,48.53
2023-04-23T17:59:53.618Z,49.18
2023-04-23T18:02:21.373Z,48.87
2023-04-23T18:04:49.080Z,48.61
2023-04-23T18:07:16.780Z,48.35
2023-04-23T18:09:44.369Z,47.72
2023-04-23T18:12:12.016Z,47.91
2023-04-23T18:14:41.034Z,47.43
2023-04-23T18:17:08.746Z,48.21
2023-04-23T18:19:37.169Z,47.90
2023-04-23T18:22:04.758Z,47.09
2023-04-23T18:24:32.334Z,46.68
2023-04-23T18:26:59.951Z,46.27
2023-04-23T18:29:29.466Z,46.08
2023-04-23T18:31:58.614Z,46.12
2023-04-23T18:34:26.489Z,46.49
2023-04-23T18:36:55.435Z,46.53
2023-04-23T18:39:23.126Z,46.42
2023-04-23T18:41:51.033Z,46.58
2023-04-23T18:44:18.998Z,47.33
2023-04-23T18:46:46.558Z,48.40
2023-04-23T18:49:32.354Z,48.42
2023-04-23T18:51:59.882Z,48.66
2023-04-23T18:54:27.448Z,48.74
2023-04-23T18:56:55.503Z,48.75
2023-04-23T18:59:23.059Z,48.85
2023-04-23T19:01:51.136Z,48.73
2023-04-23T19:04:18.880Z,48.78
2023-04-23T19:06:47.960Z,48.82
2023-04-23T19:09:15.588Z,48.86
2023-04-23T19:11:43.187Z,48.95
2023-04-23T19:14:10.751Z,48.83
2023-04-23T19:16:38.340Z,48.75
2023-04-23T19:19:05.873Z,48.94
2023-04-23T19:21:33.650Z,48.68
2023-04-23T19:24:02.772Z,48.75
2023-04-23T19:26:31.582Z,48.74
2023-04-23T19:28:59.212Z,48.62
2023-04-23T19:31:27.059Z,48.92
2023-04-23T19:33:54.630Z,48.79
2023-04-23T19:36:22.133Z,49.01
2023-04-23T19:38:49.737Z,49.15
2023-04-23T19:41:19.164Z,49.13
2023-04-23T19:43:46.760Z,49.15
2023-04-23T19:46:14.379Z,49.22
2023-04-23T19:48:41.979Z,49.26
2023-04-23T19:51:09.618Z,49.36
2023-04-23T19:53:37.216Z,49.37
2023-04-23T19:56:04.821Z,49.47
2023-04-23T19:58:33.850Z,49.38
2023-04-23T20:01:01.978Z,49.58
2023-04-23T20:03:29.814Z,49.95
2023-04-23T20:05:58.396Z,50.25
2023-04-23T20:08:29.662Z,50.39
2023-04-23T20:10:59.986Z,50.42
2023-04-23T20:13:27.684Z,50.33
2023-04-23T20:15:56.617Z,50.52
2023-04-23T20:18:25.544Z,50.69
2023-04-23T20:20:53.156Z,50.67
2023-04-23T20:23:20.730Z,50.73
2023-04-23T20:25:48.621Z,50.61
2023-04-23T20:28:16.330Z,50.59
2023-04-23T20:30:43.978Z,50.58
2023-04-23T20:33:12.977Z,50.93
2023-04-23T20:35:41.884Z,50.89
2023-04-23T20:38:09.687Z,51.13
2023-04-23T20:40:37.310Z,51.18
2023-04-23T20:43:05.539Z,51.10
2023-04-23T20:45:34.582Z,51.15
2023-04-23T20:48:03.871Z,51.28
2023-04-23T20:50:32.975Z,51.31
2023-04-23T20:53:00.675Z,51.18
2023-04-23T20:55:28.435Z,51.04
2023-04-23T20:57:56.080Z,51.21
2023-04-23T21:00:24.186Z,51.24
2023-04-23T21:02:51.887Z,51.23
2023-04-23T21:05:20.708Z,51.26
2023-04-23T21:07:50.633Z,51.33
2023-04-23T21:10:18.414Z,51.29
2023-04-23T21:12:46.023Z,51.25
2023-04-23T21:15:13.643Z,51.48
2023-04-23T21:17:41.327Z,51.47
2023-04-23T21:20:09.584Z,51.38
2023-04-23T21:22:37.218Z,51.45
2023-04-23T21:25:06.525Z,51.78
2023-04-23T21:27:34.054Z,51.63
2023-04-23T21:30:01.643Z,51.72
2023-04-23T21:32:29.214Z,51.60
2023-04-23T21:34:56.895Z,51.54
2023-04-23T21:37:24.552Z,51.62
2023-04-23T21:39:52.135Z,51.67
2023-04-23T21:42:21.088Z,51.67
2023-04-23T21:44:48.706Z,51.74
2023-04-23T21:47:16.299Z,51.63
2023-04-23T21:49:44.213Z,51.76
2023-04-23T21:52:11.998Z,51.72
2023-04-23T21:54:39.766Z,51.65
2023-04-23T21:57:07.322Z,51.73
2023-04-23T21:59:36.304Z,51.72
2023-04-23T22:02:03.932Z,51.73
2023-04-23T22:04:31.601Z,51.73
2023-04-23T22:07:05.660Z,51.81
2023-04-23T22:09:33.259Z,51.72
2023-04-23T22:12:02.915Z,51.85
2023-04-23T22:14:30.758Z,51.81
2023-04-23T22:16:59.906Z,51.64
2023-04-23T22:19:27.578Z,52.00
2023-04-23T22:21:55.254Z,51.93
2023-04-23T22:24:23.290Z,51.87
2023-04-23T22:26:50.987Z,51.92
2023-04-23T22:29:18.617Z,51.92
2023-04-23T22:31:46.518Z,52.05
2023-04-23T22:34:15.509Z,52.08
2023-04-23T22:36:43.420Z,52.20
2023-04-23T22:39:12.507Z,52.02
2023-04-23T22:41:40.410Z,52.14
2023-04-23T22:44:09.274Z,52.07
2023-04-23T22:46:37.335Z,52.13
2023-04-23T22:49:08.046Z,52.20
2023-04-23T22:51:38.675Z,52.16
2023-04-23T22:54:06.288Z,52.23
2023-04-23T22:56:34.260Z,52.39
2023-04-23T22:59:01.969Z,52.32
2023-04-23T23:01:29.604Z,52.39
2023-04-23T23:03:57.373Z,52.58
2023-04-23T23:06:25.128Z,52.49
2023-04-23T23:08:54.194Z,52.45
2023-04-23T23:11:22.196Z,52.42
2023-04-23T23:13:50.200Z,52.63
2023-04-23T23:16:18.666Z,52.65
2023-04-23T23:18:46.394Z,52.81
2023-04-23T23:21:14.080Z,52.75
2023-04-23T23:23:41.696Z,52.66
2023-04-23T23:26:10.628Z,52.82
2023-04-23T23:28:38.202Z,52.76
2023-04-23T23:31:05.862Z,52.73
2023-04-23T23:33:35.561Z,52.73
2023-04-23T23:36:03.149Z,52.79
2023-04-23T23:38:30.747Z,53.08
2023-04-23T23:40:58.330Z,53.03
2023-04-23T23:43:27.422Z,53.07
2023-04-23T23:45:55.124Z,53.02
2023-04-23T23:48:22.748Z,53.52
2023-04-23T23:50:50.286Z,53.28
2023-04-23T23:53:17.856Z,53.49
2023-04-23T23:55:45.574Z,53.48
2023-04-23T23:58:13.162Z,53.58
